Terminal Aerodrome Forecast
Issued by NWS

Home | Current Version | Previous Version | Text Only | Print | Product List | Glossary On
Versions: 1 2 3 4 5 6 7 8 9 10 11 12 13
000
FTUS46 KLOX 202300 RRA
TAFPMD
TAF
KPMD 202350Z 2100/2124 24015G20KT P6SM FEW060 SCT250
     FM210300 25010KT P6SM SKC
     FM210700 20007KT P6SM SKC
     FM211200 VRB03KT P6SM SKC
     FM212200 23012G20KT P6SM SKC=

USA.gov is the U.S. government's official web portal to all federal, state and local government web resources and services.